createdAt,value
2019-03-11T00:00:54.746Z,4.64
2019-03-11T00:05:56.433Z,4.55
2019-03-11T00:10:58.102Z,4.48
2019-03-11T00:15:59.769Z,4.41
2019-03-11T00:21:01.499Z,4.27
2019-03-11T00:26:03.172Z,4.26
2019-03-11T00:31:04.840Z,4.15
2019-03-11T00:36:06.548Z,4.06
2019-03-11T00:41:08.233Z,4.12
2019-03-11T00:46:09.948Z,4.23
2019-03-11T00:51:11.558Z,4.26
2019-03-11T00:56:13.156Z,4.27
2019-03-11T01:01:14.771Z,4.28
2019-03-11T01:06:16.442Z,4.29
2019-03-11T01:11:18.150Z,4.34
2019-03-11T01:16:19.793Z,4.25
2019-03-11T01:21:21.584Z,4.16
2019-03-11T01:26:23.197Z,4.04
2019-03-11T01:31:24.779Z,3.99
2019-03-11T01:36:26.404Z,4.05
2019-03-11T01:41:28.151Z,4.17
2019-03-11T01:46:29.767Z,4.18
2019-03-11T01:51:31.424Z,4.21
2019-03-11T01:56:33.096Z,4.28
2019-03-11T02:01:34.730Z,4.33
2019-03-11T02:06:36.412Z,4.29
2019-03-11T02:11:38.012Z,4.31
2019-03-11T02:16:39.644Z,4.37
2019-03-11T02:21:41.303Z,4.34
2019-03-11T02:26:42.986Z,4.36
2019-03-11T02:31:44.652Z,4.35
2019-03-11T02:36:46.321Z,4.32
2019-03-11T02:41:47.978Z,4.44
2019-03-11T02:46:49.614Z,4.39
2019-03-11T02:51:51.239Z,4.27
2019-03-11T02:56:52.876Z,4.11
2019-03-11T03:01:54.533Z,4.10
2019-03-11T03:06:56.124Z,4.12
2019-03-11T03:11:57.708Z,4.18
2019-03-11T03:16:59.362Z,4.22
2019-03-11T03:22:00.964Z,4.12
2019-03-11T03:27:02.694Z,3.90
2019-03-11T03:32:04.326Z,3.88
2019-03-11T03:37:05.892Z,3.88
2019-03-11T03:42:08.171Z,3.95
2019-03-11T03:47:09.865Z,4.03
2019-03-11T03:52:11.597Z,4.05
2019-03-11T03:57:13.203Z,3.92
2019-03-11T04:02:14.820Z,3.80
2019-03-11T04:07:16.556Z,3.85
2019-03-11T04:12:18.233Z,3.88
2019-03-11T04:17:19.834Z,3.80
2019-03-11T04:22:21.426Z,3.71
2019-03-11T04:27:23.054Z,3.64
2019-03-11T04:32:24.722Z,3.42
2019-03-11T04:37:26.345Z,3.32
2019-03-11T04:42:28.095Z,3.28
2019-03-11T04:47:32.097Z,3.25
2019-03-11T04:52:33.694Z,3.30
2019-03-11T04:57:45.924Z,3.24
2019-03-11T05:02:47.530Z,3.25
2019-03-11T05:07:49.247Z,3.28
2019-03-11T05:12:50.854Z,3.36
2019-03-11T05:17:52.471Z,3.27
2019-03-11T05:22:55.067Z,3.18
2019-03-11T05:27:56.856Z,3.22
2019-03-11T05:32:58.631Z,3.33
2019-03-11T05:38:00.249Z,3.44
2019-03-11T05:43:01.998Z,3.50
2019-03-11T05:48:03.627Z,3.43
2019-03-11T05:53:05.223Z,3.38
2019-03-11T05:58:06.818Z,3.31
2019-03-11T06:03:08.432Z,3.33
2019-03-11T06:08:19.742Z,3.37
2019-03-11T06:13:21.468Z,3.44
2019-03-11T06:18:23.014Z,3.39
2019-03-11T06:23:24.672Z,3.20
2019-03-11T06:28:26.291Z,3.11
2019-03-11T06:33:27.915Z,3.11
2019-03-11T06:38:29.505Z,3.22
2019-03-11T06:43:31.190Z,3.33
2019-03-11T06:48:32.823Z,3.38
2019-03-11T06:53:34.393Z,3.47
2019-03-11T06:58:36.002Z,3.46
2019-03-11T07:03:38.744Z,3.45
2019-03-11T07:08:40.348Z,3.45
2019-03-11T07:13:42.059Z,3.61
2019-03-11T07:18:43.695Z,3.67
2019-03-11T07:23:45.276Z,3.82
2019-03-11T07:28:46.908Z,3.98
2019-03-11T07:33:48.564Z,4.13
2019-03-11T07:38:50.289Z,4.20
2019-03-11T07:43:51.991Z,4.27
2019-03-11T07:48:53.586Z,4.45
2019-03-11T07:53:55.303Z,4.55
2019-03-11T07:58:57.160Z,4.69
2019-03-11T08:04:02.238Z,4.69
2019-03-11T08:09:05.566Z,4.98
2019-03-11T08:14:08.930Z,5.16
2019-03-11T08:19:12.255Z,5.31
2019-03-11T08:24:16.857Z,5.35
2019-03-11T08:29:18.820Z,5.43
2019-03-11T08:34:20.586Z,5.67
2019-03-11T08:39:22.714Z,5.88
2019-03-11T08:44:24.417Z,5.96
2019-03-11T08:49:26.130Z,6.02
2019-03-11T08:54:27.874Z,5.91
2019-03-11T08:59:29.767Z,5.86
2019-03-11T09:04:31.635Z,6.05
2019-03-11T09:09:33.296Z,6.17
2019-03-11T09:14:34.945Z,6.15
2019-03-11T09:19:36.774Z,6.11
2019-03-11T09:24:38.437Z,6.37
2019-03-11T09:29:40.108Z,6.33
2019-03-11T09:34:41.800Z,6.30
2019-03-11T09:39:43.407Z,6.10
2019-03-11T09:44:45.020Z,6.01
2019-03-11T09:49:46.683Z,6.40
2019-03-11T09:54:48.398Z,6.62
2019-03-11T09:59:50.009Z,6.79
2019-03-11T10:04:51.588Z,6.97
2019-03-11T10:09:53.276Z,6.99
2019-03-11T10:14:54.993Z,7.25
2019-03-11T10:19:56.788Z,7.05
2019-03-11T10:24:58.868Z,7.31
2019-03-11T10:30:00.445Z,7.27
2019-03-11T10:35:02.065Z,7.51
2019-03-11T10:40:04.595Z,7.46
2019-03-11T10:45:06.448Z,7.61
2019-03-11T10:50:08.789Z,7.45
2019-03-11T10:55:11.001Z,7.34
2019-03-11T11:00:15.252Z,7.21
2019-03-11T11:05:16.812Z,6.97
2019-03-11T11:10:18.412Z,7.22
2019-03-11T11:15:20.400Z,6.78
2019-03-11T11:20:22.464Z,6.07
2019-03-11T11:25:24.077Z,6.20
2019-03-11T11:30:25.636Z,6.37
2019-03-11T11:35:27.242Z,5.98
2019-03-11T11:40:28.828Z,5.90
2019-03-11T11:45:30.468Z,6.37
2019-03-11T11:50:32.140Z,6.67
2019-03-11T11:55:33.748Z,7.23
2019-03-11T12:00:35.646Z,7.63
2019-03-11T12:05:37.282Z,7.47
2019-03-11T12:10:38.878Z,7.68
2019-03-11T12:15:40.528Z,7.98
2019-03-11T12:20:42.154Z,7.90
2019-03-11T12:25:43.861Z,7.94
2019-03-11T12:30:45.421Z,7.67
2019-03-11T12:35:47.218Z,7.85
2019-03-11T12:40:48.830Z,8.01
2019-03-11T12:45:50.480Z,7.97
2019-03-11T12:50:52.079Z,7.69
2019-03-11T12:55:53.687Z,8.09
2019-03-11T13:00:55.364Z,7.83
2019-03-11T13:05:57.082Z,7.78
2019-03-11T13:10:58.684Z,7.96
2019-03-11T13:16:00.332Z,8.11
2019-03-11T13:21:17.530Z,8.03
2019-03-11T13:26:19.301Z,8.23
2019-03-11T13:31:20.872Z,8.34
2019-03-11T13:36:22.469Z,8.12
2019-03-11T13:41:24.045Z,8.64
2019-03-11T13:46:25.647Z,8.41
2019-03-11T13:51:27.326Z,8.34
2019-03-11T13:56:29.011Z,8.48
2019-03-11T14:01:30.619Z,8.32
2019-03-11T14:06:32.477Z,8.74
2019-03-11T14:11:34.051Z,8.76
2019-03-11T14:16:35.675Z,8.76
2019-03-11T14:21:37.294Z,8.42
2019-03-11T14:26:38.978Z,8.04
2019-03-11T14:31:40.560Z,8.10
2019-03-11T14:36:42.145Z,8.33
2019-03-11T14:41:43.770Z,8.52
2019-03-11T14:46:45.459Z,8.44
2019-03-11T14:51:47.138Z,8.11
2019-03-11T14:56:48.758Z,8.40
2019-03-11T15:01:50.378Z,8.12
2019-03-11T15:06:52.836Z,8.31
2019-03-11T15:11:54.638Z,8.61
2019-03-11T15:16:56.253Z,8.45
2019-03-11T15:21:58.424Z,8.32
2019-03-11T15:27:00.063Z,8.51
2019-03-11T15:32:01.665Z,8.31
2019-03-11T15:37:03.313Z,8.13
2019-03-11T15:42:06.135Z,8.21
2019-03-11T15:47:07.666Z,7.89
2019-03-11T15:52:09.277Z,7.96
2019-03-11T15:57:10.876Z,8.07
2019-03-11T16:02:12.717Z,7.85
2019-03-11T16:07:14.251Z,7.96
2019-03-11T16:12:15.865Z,7.86
2019-03-11T16:17:17.435Z,7.89
2019-03-11T16:22:23.241Z,7.79
2019-03-11T16:27:22.768Z,7.44
2019-03-11T16:32:24.318Z,7.41
2019-03-11T16:37:26.014Z,7.41
2019-03-11T16:42:27.855Z,7.47
2019-03-11T16:47:29.561Z,7.55
2019-03-11T16:52:31.223Z,7.39
2019-03-11T16:57:35.202Z,7.26
2019-03-11T17:02:36.951Z,7.32
2019-03-11T17:07:38.577Z,7.11
2019-03-11T17:12:40.204Z,7.05
2019-03-11T17:17:42.329Z,6.99
2019-03-11T17:22:44.063Z,6.94
2019-03-11T17:27:45.678Z,6.77
2019-03-11T17:32:47.327Z,6.67
2019-03-11T17:37:53.032Z,6.59
2019-03-11T17:42:57.878Z,6.40
2019-03-11T17:47:59.537Z,6.49
2019-03-11T17:53:01.134Z,6.42
2019-03-11T17:58:02.763Z,6.36
2019-03-11T18:03:04.370Z,6.36
2019-03-11T18:08:06.124Z,6.25
2019-03-11T18:13:07.726Z,6.20
2019-03-11T18:18:09.382Z,6.10
2019-03-11T18:23:10.960Z,6.03
2019-03-11T18:28:12.707Z,5.97
2019-03-11T18:33:14.324Z,5.92
2019-03-11T18:38:15.969Z,5.86
2019-03-11T18:43:20.975Z,5.79
2019-03-11T18:48:22.158Z,5.68
2019-03-11T18:53:23.890Z,5.67
2019-03-11T18:58:25.753Z,5.58
2019-03-11T19:03:27.554Z,5.53
2019-03-11T19:08:31.386Z,5.45
2019-03-11T19:13:33.002Z,5.37
2019-03-11T19:18:37.488Z,5.36
2019-03-11T19:23:40.266Z,5.27
2019-03-11T19:28:41.861Z,5.17
2019-03-11T19:33:43.824Z,5.13
2019-03-11T19:38:47.601Z,5.04
2019-03-11T19:43:51.266Z,4.99
2019-03-11T19:48:53.310Z,4.92
2019-03-11T19:53:57.593Z,4.86
2019-03-11T19:58:59.821Z,4.84
2019-03-11T20:04:02.740Z,4.80
2019-03-11T20:09:07.187Z,4.74
2019-03-11T20:14:09.285Z,4.69
2019-03-11T20:19:11.092Z,4.62
2019-03-11T20:24:12.857Z,4.65
2019-03-11T20:29:23.296Z,4.59
2019-03-11T20:34:24.405Z,4.58
2019-03-11T20:39:26.468Z,4.53
2019-03-11T20:44:28.226Z,4.50
2019-03-11T20:49:29.935Z,4.44
2019-03-11T20:54:33.016Z,4.38
2019-03-11T20:59:35.268Z,4.29
2019-03-11T21:04:37.420Z,4.20
2019-03-11T21:09:39.229Z,4.15
2019-03-11T21:14:40.866Z,4.06
2019-03-11T21:19:45.067Z,3.99
2019-03-11T21:24:55.528Z,3.93
2019-03-11T21:29:51.863Z,3.87
2019-03-11T21:34:55.816Z,3.84
2019-03-11T21:39:58.062Z,3.80
2019-03-11T21:44:59.749Z,3.76
2019-03-11T21:50:01.531Z,3.72
2019-03-11T21:55:03.377Z,3.68
2019-03-11T22:00:05.728Z,3.69
2019-03-11T22:05:07.441Z,3.67
2019-03-11T22:10:09.699Z,3.61
2019-03-11T22:15:11.742Z,3.58
2019-03-11T22:20:13.596Z,3.50
2019-03-11T22:25:15.332Z,3.45
2019-03-11T22:30:17.976Z,3.42
2019-03-11T22:35:20.107Z,3.37
2019-03-11T22:40:21.712Z,3.35
2019-03-11T22:45:23.429Z,3.41
2019-03-11T22:50:24.995Z,3.38
2019-03-11T22:55:26.598Z,3.37
2019-03-11T23:00:34.139Z,3.31
2019-03-11T23:05:35.829Z,3.27
2019-03-11T23:10:37.573Z,3.23
2019-03-11T23:15:39.214Z,3.21
2019-03-11T23:20:40.856Z,3.13
2019-03-11T23:25:42.445Z,3.04
2019-03-11T23:30:44.168Z,2.97
2019-03-11T23:35:46.097Z,2.92
2019-03-11T23:40:47.656Z,2.93
2019-03-11T23:45:49.251Z,2.98
2019-03-11T23:50:50.825Z,3.03
2019-03-11T23:55:52.581Z,3.12
